sensor_id;sensor_type;location;lat;lon;timestamp;temperature;humidity
12477;DHT22;6303;51.504;6.300;2022-08-23T00:00:08;29.60;50.80
12477;DHT22;6303;51.504;6.300;2022-08-23T00:02:36;29.60;50.90
12477;DHT22;6303;51.504;6.300;2022-08-23T00:05:04;29.60;50.90
12477;DHT22;6303;51.504;6.300;2022-08-23T00:07:32;29.50;50.90
12477;DHT22;6303;51.504;6.300;2022-08-23T00:09:59;29.60;50.90
12477;DHT22;6303;51.504;6.300;2022-08-23T00:12:26;29.50;50.90
12477;DHT22;6303;51.504;6.300;2022-08-23T00:14:55;29.60;50.90
12477;DHT22;6303;51.504;6.300;2022-08-23T00:17:22;29.60;50.80
12477;DHT22;6303;51.504;6.300;2022-08-23T00:19:49;29.60;50.80
12477;DHT22;6303;51.504;6.300;2022-08-23T00:22:16;29.60;50.80
12477;DHT22;6303;51.504;6.300;2022-08-23T00:24:43;29.60;50.70
12477;DHT22;6303;51.504;6.300;2022-08-23T00:27:13;29.60;50.80
12477;DHT22;6303;51.504;6.300;2022-08-23T00:29:44;29.60;50.80
12477;DHT22;6303;51.504;6.300;2022-08-23T00:32:20;29.60;50.70
12477;DHT22;6303;51.504;6.300;2022-08-23T00:34:48;28.10;49.80
12477;DHT22;6303;51.504;6.300;2022-08-23T00:37:16;29.60;50.80
12477;DHT22;6303;51.504;6.300;2022-08-23T00:39:44;29.50;50.70
12477;DHT22;6303;51.504;6.300;2022-08-23T00:42:15;29.50;50.70
12477;DHT22;6303;51.504;6.300;2022-08-23T00:45:09;29.50;50.20
12477;DHT22;6303;51.504;6.300;2022-08-23T00:47:57;29.50;50.70
12477;DHT22;6303;51.504;6.300;2022-08-23T00:50:30;29.50;50.70
12477;DHT22;6303;51.504;6.300;2022-08-23T00:53:03;29.50;50.70
12477;DHT22;6303;51.504;6.300;2022-08-23T00:55:32;29.50;50.70
12477;DHT22;6303;51.504;6.300;2022-08-23T00:58:00;29.50;50.70
12477;DHT22;6303;51.504;6.300;2022-08-23T01:00:28;29.50;50.70
12477;DHT22;6303;51.504;6.300;2022-08-23T01:02:57;29.50;50.70
12477;DHT22;6303;51.504;6.300;2022-08-23T01:05:28;29.50;50.60
12477;DHT22;6303;51.504;6.300;2022-08-23T01:07:58;29.50;50.60
12477;DHT22;6303;51.504;6.300;2022-08-23T01:10:29;29.50;50.60
12477;DHT22;6303;51.504;6.300;2022-08-23T01:13:00;29.50;50.60
12477;DHT22;6303;51.504;6.300;2022-08-23T01:15:34;29.50;50.60
12477;DHT22;6303;51.504;6.300;2022-08-23T01:18:06;29.50;50.60
12477;DHT22;6303;51.504;6.300;2022-08-23T01:20:40;29.50;50.60
12477;DHT22;6303;51.504;6.300;2022-08-23T01:23:23;29.50;50.60
12477;DHT22;6303;51.504;6.300;2022-08-23T01:25:51;29.50;50.60
12477;DHT22;6303;51.504;6.300;2022-08-23T01:28:19;29.50;50.60
12477;DHT22;6303;51.504;6.300;2022-08-23T01:30:47;29.50;50.60
12477;DHT22;6303;51.504;6.300;2022-08-23T01:33:16;29.50;50.60
12477;DHT22;6303;51.504;6.300;2022-08-23T01:35:46;29.50;50.60
12477;DHT22;6303;51.504;6.300;2022-08-23T01:38:14;29.50;50.60
12477;DHT22;6303;51.504;6.300;2022-08-23T01:40:44;29.50;50.60
12477;DHT22;6303;51.504;6.300;2022-08-23T01:43:12;29.50;50.60
12477;DHT22;6303;51.504;6.300;2022-08-23T01:45:40;29.50;50.60
12477;DHT22;6303;51.504;6.300;2022-08-23T01:48:10;29.50;50.60
12477;DHT22;6303;51.504;6.300;2022-08-23T01:50:37;29.50;50.50
12477;DHT22;6303;51.504;6.300;2022-08-23T01:53:05;29.50;50.50
12477;DHT22;6303;51.504;6.300;2022-08-23T01:55:33;29.50;50.50
12477;DHT22;6303;51.504;6.300;2022-08-23T01:58:03;29.40;50.40
12477;DHT22;6303;51.504;6.300;2022-08-23T02:00:34;29.40;50.40
12477;DHT22;6303;51.504;6.300;2022-08-23T02:03:02;29.40;50.30
12477;DHT22;6303;51.504;6.300;2022-08-23T02:05:30;29.40;50.30
12477;DHT22;6303;51.504;6.300;2022-08-23T02:07:58;29.40;50.30
12477;DHT22;6303;51.504;6.300;2022-08-23T02:10:47;29.40;50.30
12477;DHT22;6303;51.504;6.300;2022-08-23T02:13:18;29.40;50.20
12477;DHT22;6303;51.504;6.300;2022-08-23T02:15:46;29.40;50.30
12477;DHT22;6303;51.504;6.300;2022-08-23T02:18:17;29.40;50.40
12477;DHT22;6303;51.504;6.300;2022-08-23T02:20:45;29.40;50.30
12477;DHT22;6303;51.504;6.300;2022-08-23T02:23:12;29.40;50.30
12477;DHT22;6303;51.504;6.300;2022-08-23T02:25:39;29.40;50.30
12477;DHT22;6303;51.504;6.300;2022-08-23T02:28:09;29.40;50.20
12477;DHT22;6303;51.504;6.300;2022-08-23T02:30:39;29.40;50.20
12477;DHT22;6303;51.504;6.300;2022-08-23T02:33:08;29.40;50.20
12477;DHT22;6303;51.504;6.300;2022-08-23T02:35:36;29.40;50.10
12477;DHT22;6303;51.504;6.300;2022-08-23T02:38:04;29.40;50.20
12477;DHT22;6303;51.504;6.300;2022-08-23T02:40:31;29.40;50.10
12477;DHT22;6303;51.504;6.300;2022-08-23T02:42:58;29.40;50.10
12477;DHT22;6303;51.504;6.300;2022-08-23T02:45:27;29.40;50.00
12477;DHT22;6303;51.504;6.300;2022-08-23T02:47:56;29.40;50.00
12477;DHT22;6303;51.504;6.300;2022-08-23T02:50:30;29.40;50.10
12477;DHT22;6303;51.504;6.300;2022-08-23T02:52:58;29.40;50.10
12477;DHT22;6303;51.504;6.300;2022-08-23T02:55:26;29.40;50.20
12477;DHT22;6303;51.504;6.300;2022-08-23T02:57:54;29.40;50.10
12477;DHT22;6303;51.504;6.300;2022-08-23T03:00:21;29.40;50.10
12477;DHT22;6303;51.504;6.300;2022-08-23T03:02:49;29.40;50.20
12477;DHT22;6303;51.504;6.300;2022-08-23T03:05:18;29.40;50.20
12477;DHT22;6303;51.504;6.300;2022-08-23T03:07:45;29.40;50.10
12477;DHT22;6303;51.504;6.300;2022-08-23T03:10:12;29.40;50.10
12477;DHT22;6303;51.504;6.300;2022-08-23T03:12:47;29.40;50.00
12477;DHT22;6303;51.504;6.300;2022-08-23T03:15:14;29.40;50.00
12477;DHT22;6303;51.504;6.300;2022-08-23T03:17:41;29.40;50.00
12477;DHT22;6303;51.504;6.300;2022-08-23T03:20:10;29.40;49.90
12477;DHT22;6303;51.504;6.300;2022-08-23T03:22:38;29.40;50.00
12477;DHT22;6303;51.504;6.300;2022-08-23T03:25:06;29.40;50.00
12477;DHT22;6303;51.504;6.300;2022-08-23T03:27:48;29.40;50.00
12477;DHT22;6303;51.504;6.300;2022-08-23T03:30:16;29.40;50.00
12477;DHT22;6303;51.504;6.300;2022-08-23T03:32:44;29.40;49.90
12477;DHT22;6303;51.504;6.300;2022-08-23T03:35:11;29.40;49.90
12477;DHT22;6303;51.504;6.300;2022-08-23T03:37:40;29.40;50.00
12477;DHT22;6303;51.504;6.300;2022-08-23T03:40:08;29.30;49.90
12477;DHT22;6303;51.504;6.300;2022-08-23T03:42:36;29.30;50.00
12477;DHT22;6303;51.504;6.300;2022-08-23T03:45:04;29.30;50.10
12477;DHT22;6303;51.504;6.300;2022-08-23T03:47:31;29.30;50.10
12477;DHT22;6303;51.504;6.300;2022-08-23T03:49:59;29.30;50.10
12477;DHT22;6303;51.504;6.300;2022-08-23T03:52:26;29.30;50.20
12477;DHT22;6303;51.504;6.300;2022-08-23T03:54:54;29.30;50.10
12477;DHT22;6303;51.504;6.300;2022-08-23T03:57:22;29.30;50.10
12477;DHT22;6303;51.504;6.300;2022-08-23T03:59:49;29.30;50.10
12477;DHT22;6303;51.504;6.300;2022-08-23T04:02:17;29.30;50.10
12477;DHT22;6303;51.504;6.300;2022-08-23T04:04:45;29.30;50.10
12477;DHT22;6303;51.504;6.300;2022-08-23T04:07:26;29.30;50.10
12477;DHT22;6303;51.504;6.300;2022-08-23T04:09:58;29.30;50.10
12477;DHT22;6303;51.504;6.300;2022-08-23T04:12:30;29.30;50.10
12477;DHT22;6303;51.504;6.300;2022-08-23T04:14:58;29.30;50.20
12477;DHT22;6303;51.504;6.300;2022-08-23T04:17:26;29.30;50.20
12477;DHT22;6303;51.504;6.300;2022-08-23T04:19:54;29.30;50.20
12477;DHT22;6303;51.504;6.300;2022-08-23T04:22:22;29.30;50.20
12477;DHT22;6303;51.504;6.300;2022-08-23T04:24:50;29.30;50.20
12477;DHT22;6303;51.504;6.300;2022-08-23T04:27:18;29.20;50.10
12477;DHT22;6303;51.504;6.300;2022-08-23T04:29:46;29.20;50.10
12477;DHT22;6303;51.504;6.300;2022-08-23T04:32:17;29.20;50.00
12477;DHT22;6303;51.504;6.300;2022-08-23T04:34:44;29.20;50.00
12477;DHT22;6303;51.504;6.300;2022-08-23T04:37:14;29.20;50.00
12477;DHT22;6303;51.504;6.300;2022-08-23T04:39:43;29.20;49.90
12477;DHT22;6303;51.504;6.300;2022-08-23T04:42:38;29.20;50.00
12477;DHT22;6303;51.504;6.300;2022-08-23T04:45:07;29.20;49.90
12477;DHT22;6303;51.504;6.300;2022-08-23T04:47:36;29.20;49.80
12477;DHT22;6303;51.504;6.300;2022-08-23T04:50:08;29.20;49.80
12477;DHT22;6303;51.504;6.300;2022-08-23T04:52:35;29.20;49.90
12477;DHT22;6303;51.504;6.300;2022-08-23T04:55:03;29.20;50.10
12477;DHT22;6303;51.504;6.300;2022-08-23T04:57:47;29.20;50.20
12477;DHT22;6303;51.504;6.300;2022-08-23T05:00:20;29.20;50.20
12477;DHT22;6303;51.504;6.300;2022-08-23T05:02:52;29.20;50.10
12477;DHT22;6303;51.504;6.300;2022-08-23T05:05:20;29.20;50.10
12477;DHT22;6303;51.504;6.300;2022-08-23T05:07:48;29.20;50.10
12477;DHT22;6303;51.504;6.300;2022-08-23T05:10:16;29.20;50.10
12477;DHT22;6303;51.504;6.300;2022-08-23T05:12:48;29.20;50.10
12477;DHT22;6303;51.504;6.300;2022-08-23T05:15:18;29.20;50.00
12477;DHT22;6303;51.504;6.300;2022-08-23T05:17:51;29.20;50.00
12477;DHT22;6303;51.504;6.300;2022-08-23T05:20:18;29.10;49.90
12477;DHT22;6303;51.504;6.300;2022-08-23T05:22:46;29.10;50.00
12477;DHT22;6303;51.504;6.300;2022-08-23T05:25:25;29.10;50.00
12477;DHT22;6303;51.504;6.300;2022-08-23T05:28:16;29.20;50.10
12477;DHT22;6303;51.504;6.300;2022-08-23T05:30:44;29.20;50.20
12477;DHT22;6303;51.504;6.300;2022-08-23T05:33:11;29.10;50.40
12477;DHT22;6303;51.504;6.300;2022-08-23T05:35:39;29.10;50.60
12477;DHT22;6303;51.504;6.300;2022-08-23T05:38:06;29.10;50.80
12477;DHT22;6303;51.504;6.300;2022-08-23T05:40:33;29.10;51.10
12477;DHT22;6303;51.504;6.300;2022-08-23T05:43:07;29.10;51.10
12477;DHT22;6303;51.504;6.300;2022-08-23T05:45:36;29.10;50.90
12477;DHT22;6303;51.504;6.300;2022-08-23T05:48:03;29.20;50.90
12477;DHT22;6303;51.504;6.300;2022-08-23T05:50:46;29.10;50.80
12477;DHT22;6303;51.504;6.300;2022-08-23T05:53:13;29.20;50.90
12477;DHT22;6303;51.504;6.300;2022-08-23T05:55:43;29.10;50.80
12477;DHT22;6303;51.504;6.300;2022-08-23T05:58:15;29.10;51.00
12477;DHT22;6303;51.504;6.300;2022-08-23T06:00:45;29.20;51.10
12477;DHT22;6303;51.504;6.300;2022-08-23T06:03:13;28.50;50.70
12477;DHT22;6303;51.504;6.300;2022-08-23T06:05:40;29.10;51.10
12477;DHT22;6303;51.504;6.300;2022-08-23T06:08:08;29.20;51.20
12477;DHT22;6303;51.504;6.300;2022-08-23T06:10:36;29.20;51.10
12477;DHT22;6303;51.504;6.300;2022-08-23T06:13:12;29.20;51.10
12477;DHT22;6303;51.504;6.300;2022-08-23T06:15:42;29.20;51.20
12477;DHT22;6303;51.504;6.300;2022-08-23T06:18:11;29.20;51.30
12477;DHT22;6303;51.504;6.300;2022-08-23T06:20:40;29.20;51.50
12477;DHT22;6303;51.504;6.300;2022-08-23T06:23:11;29.30;51.60
12477;DHT22;6303;51.504;6.300;2022-08-23T06:25:39;29.30;51.60
12477;DHT22;6303;51.504;6.300;2022-08-23T06:28:11;29.30;51.60
12477;DHT22;6303;51.504;6.300;2022-08-23T06:30:38;29.30;51.70
12477;DHT22;6303;51.504;6.300;2022-08-23T06:33:23;29.30;51.70
12477;DHT22;6303;51.504;6.300;2022-08-23T06:36:11;29.30;51.70
12477;DHT22;6303;51.504;6.300;2022-08-23T06:38:59;29.30;51.70
12477;DHT22;6303;51.504;6.300;2022-08-23T06:41:45;29.40;51.90
12477;DHT22;6303;51.504;6.300;2022-08-23T06:44:28;29.40;51.80
12477;DHT22;6303;51.504;6.300;2022-08-23T06:47:16;29.40;51.90
12477;DHT22;6303;51.504;6.300;2022-08-23T06:49:44;29.40;52.00
12477;DHT22;6303;51.504;6.300;2022-08-23T06:52:12;29.40;52.10
12477;DHT22;6303;51.504;6.300;2022-08-23T06:55:12;29.40;52.10
12477;DHT22;6303;51.504;6.300;2022-08-23T06:57:49;29.40;52.10
12477;DHT22;6303;51.504;6.300;2022-08-23T07:00:31;29.40;52.30
12477;DHT22;6303;51.504;6.300;2022-08-23T07:03:19;29.40;52.50
12477;DHT22;6303;51.504;6.300;2022-08-23T07:06:06;29.40;52.60
12477;DHT22;6303;51.504;6.300;2022-08-23T07:08:36;29.40;52.80
12477;DHT22;6303;51.504;6.300;2022-08-23T07:11:03;29.40;52.00
12477;DHT22;6303;51.504;6.300;2022-08-23T07:13:30;29.40;52.50
12477;DHT22;6303;51.504;6.300;2022-08-23T07:15:58;29.40;52.40
12477;DHT22;6303;51.504;6.300;2022-08-23T07:18:25;29.40;52.40
12477;DHT22;6303;51.504;6.300;2022-08-23T07:20:55;29.40;51.80
12477;DHT22;6303;51.504;6.300;2022-08-23T07:23:25;29.40;52.40
12477;DHT22;6303;51.504;6.300;2022-08-23T07:25:53;29.40;52.40
12477;DHT22;6303;51.504;6.300;2022-08-23T07:28:24;29.40;52.50
12477;DHT22;6303;51.504;6.300;2022-08-23T07:30:51;29.40;52.60
12477;DHT22;6303;51.504;6.300;2022-08-23T07:33:20;29.40;52.50
12477;DHT22;6303;51.504;6.300;2022-08-23T07:36:04;29.50;52.40
12477;DHT22;6303;51.504;6.300;2022-08-23T07:38:34;29.50;52.30
12477;DHT22;6303;51.504;6.300;2022-08-23T07:41:02;29.50;51.80
12477;DHT22;6303;51.504;6.300;2022-08-23T07:43:30;29.50;52.30
12477;DHT22;6303;51.504;6.300;2022-08-23T07:45:59;29.50;52.30
12477;DHT22;6303;51.504;6.300;2022-08-23T07:48:26;29.10;52.00
12477;DHT22;6303;51.504;6.300;2022-08-23T07:51:13;29.50;51.70
12477;DHT22;6303;51.504;6.300;2022-08-23T07:53:42;29.50;52.20
12477;DHT22;6303;51.504;6.300;2022-08-23T07:56:13;29.60;52.10
12477;DHT22;6303;51.504;6.300;2022-08-23T07:58:53;29.60;52.10
12477;DHT22;6303;51.504;6.300;2022-08-23T08:01:46;28.90;51.50
12477;DHT22;6303;51.504;6.300;2022-08-23T08:04:14;29.70;52.00
12477;DHT22;6303;51.504;6.300;2022-08-23T08:06:46;29.70;52.10
12477;DHT22;6303;51.504;6.300;2022-08-23T08:09:16;29.70;52.00
12477;DHT22;6303;51.504;6.300;2022-08-23T08:11:46;29.70;51.90
12477;DHT22;6303;51.504;6.300;2022-08-23T08:14:16;29.70;51.80
12477;DHT22;6303;51.504;6.300;2022-08-23T08:16:55;29.80;51.90
12477;DHT22;6303;51.504;6.300;2022-08-23T08:19:43;29.80;51.80
12477;DHT22;6303;51.504;6.300;2022-08-23T08:22:30;29.80;51.70
12477;DHT22;6303;51.504;6.300;2022-08-23T08:25:11;29.80;51.60
12477;DHT22;6303;51.504;6.300;2022-08-23T08:27:40;29.80;51.50
12477;DHT22;6303;51.504;6.300;2022-08-23T08:30:09;29.80;51.50
12477;DHT22;6303;51.504;6.300;2022-08-23T08:32:37;29.90;51.60
12477;DHT22;6303;51.504;6.300;2022-08-23T08:35:05;29.90;51.50
12477;DHT22;6303;51.504;6.300;2022-08-23T08:37:33;30.00;51.40
12477;DHT22;6303;51.504;6.300;2022-08-23T08:40:01;30.00;51.60
12477;DHT22;6303;51.504;6.300;2022-08-23T08:42:53;30.00;51.50
12477;DHT22;6303;51.504;6.300;2022-08-23T08:45:27;30.00;51.10
12477;DHT22;6303;51.504;6.300;2022-08-23T08:48:00;30.10;51.10
12477;DHT22;6303;51.504;6.300;2022-08-23T08:50:37;30.10;51.00
12477;DHT22;6303;51.504;6.300;2022-08-23T08:53:08;30.10;51.00
12477;DHT22;6303;51.504;6.300;2022-08-23T08:55:58;30.10;50.90
12477;DHT22;6303;51.504;6.300;2022-08-23T08:58:40;30.10;50.70
12477;DHT22;6303;51.504;6.300;2022-08-23T09:01:11;30.20;50.40
12477;DHT22;6303;51.504;6.300;2022-08-23T09:03:39;30.20;50.90
12477;DHT22;6303;51.504;6.300;2022-08-23T09:06:14;30.20;50.70
12477;DHT22;6303;51.504;6.300;2022-08-23T09:08:59;30.20;51.00
12477;DHT22;6303;51.504;6.300;2022-08-23T09:11:43;30.20;50.80
12477;DHT22;6303;51.504;6.300;2022-08-23T09:14:27;30.20;50.80
12477;DHT22;6303;51.504;6.300;2022-08-23T09:17:02;30.30;50.80
12477;DHT22;6303;51.504;6.300;2022-08-23T09:19:33;30.30;50.80
12477;DHT22;6303;51.504;6.300;2022-08-23T09:22:06;30.30;50.50
12477;DHT22;6303;51.504;6.300;2022-08-23T09:24:38;30.30;50.50
12477;DHT22;6303;51.504;6.300;2022-08-23T09:27:13;30.40;50.50
12477;DHT22;6303;51.504;6.300;2022-08-23T09:29:51;29.20;49.70
12477;DHT22;6303;51.504;6.300;2022-08-23T09:32:28;30.40;50.50
12477;DHT22;6303;51.504;6.300;2022-08-23T09:35:06;30.50;50.40
12477;DHT22;6303;51.504;6.300;2022-08-23T09:37:46;30.40;50.00
12477;DHT22;6303;51.504;6.300;2022-08-23T09:40:17;30.50;50.00
12477;DHT22;6303;51.504;6.300;2022-08-23T09:42:45;30.50;49.90
12477;DHT22;6303;51.504;6.300;2022-08-23T09:45:32;30.50;50.00
12477;DHT22;6303;51.504;6.300;2022-08-23T09:48:00;30.50;49.90
12477;DHT22;6303;51.504;6.300;2022-08-23T09:50:35;30.60;49.90
12477;DHT22;6303;51.504;6.300;2022-08-23T09:53:07;30.50;49.70
12477;DHT22;6303;51.504;6.300;2022-08-23T09:55:38;30.60;49.70
12477;DHT22;6303;51.504;6.300;2022-08-23T09:58:17;31.80;50.60
12477;DHT22;6303;51.504;6.300;2022-08-23T10:01:05;30.60;49.90
12477;DHT22;6303;51.504;6.300;2022-08-23T10:03:34;30.60;49.90
12477;DHT22;6303;51.504;6.300;2022-08-23T10:06:28;30.60;49.90
12477;DHT22;6303;51.504;6.300;2022-08-23T10:08:57;30.60;49.90
12477;DHT22;6303;51.504;6.300;2022-08-23T10:11:33;30.60;49.70
12477;DHT22;6303;51.504;6.300;2022-08-23T10:14:03;30.70;49.50
12477;DHT22;6303;51.504;6.300;2022-08-23T10:16:38;30.70;49.50
12477;DHT22;6303;51.504;6.300;2022-08-23T10:19:18;30.70;49.50
12477;DHT22;6303;51.504;6.300;2022-08-23T10:21:50;30.80;49.50
12477;DHT22;6303;51.504;6.300;2022-08-23T10:24:25;30.80;49.50
12477;DHT22;6303;51.504;6.300;2022-08-23T10:27:19;30.80;49.30
12477;DHT22;6303;51.504;6.300;2022-08-23T10:30:09;33.70;51.00
12477;DHT22;6303;51.504;6.300;2022-08-23T10:32:50;30.80;49.20
12477;DHT22;6303;51.504;6.300;2022-08-23T10:35:31;30.90;49.30
12477;DHT22;6303;51.504;6.300;2022-08-23T10:38:24;30.90;49.10
12477;DHT22;6303;51.504;6.300;2022-08-23T10:41:06;30.90;48.80
12477;DHT22;6303;51.504;6.300;2022-08-23T10:43:41;30.90;49.20
12477;DHT22;6303;51.504;6.300;2022-08-23T10:46:12;30.90;49.10
12477;DHT22;6303;51.504;6.300;2022-08-23T10:48:46;30.90;49.00
12477;DHT22;6303;51.504;6.300;2022-08-23T10:51:18;30.90;48.90
12477;DHT22;6303;51.504;6.300;2022-08-23T10:53:52;31.00;48.90
12477;DHT22;6303;51.504;6.300;2022-08-23T10:56:25;31.00;48.90
12477;DHT22;6303;51.504;6.300;2022-08-23T10:58:58;31.00;49.00
12477;DHT22;6303;51.504;6.300;2022-08-23T11:01:32;31.00;48.70
12477;DHT22;6303;51.504;6.300;2022-08-23T11:04:04;31.00;48.50
12477;DHT22;6303;51.504;6.300;2022-08-23T11:06:59;31.00;48.10
12477;DHT22;6303;51.504;6.300;2022-08-23T11:09:47;31.00;47.90
12477;DHT22;6303;51.504;6.300;2022-08-23T11:12:28;31.10;48.10
12477;DHT22;6303;51.504;6.300;2022-08-23T11:15:37;31.10;48.20
12477;DHT22;6303;51.504;6.300;2022-08-23T11:18:08;31.10;48.10
12477;DHT22;6303;51.504;6.300;2022-08-23T11:24:31;31.20;47.70
12477;DHT22;6303;51.504;6.300;2022-08-23T11:27:05;31.20;47.90
12477;DHT22;6303;51.504;6.300;2022-08-23T11:29:37;31.10;47.90
12477;DHT22;6303;51.504;6.300;2022-08-23T11:32:37;31.20;48.00
12477;DHT22;6303;51.504;6.300;2022-08-23T11:35:22;31.20;47.90
12477;DHT22;6303;51.504;6.300;2022-08-23T11:37:58;31.20;48.00
12477;DHT22;6303;51.504;6.300;2022-08-23T11:43:34;31.20;48.40
12477;DHT22;6303;51.504;6.300;2022-08-23T11:46:27;31.20;48.30
12477;DHT22;6303;51.504;6.300;2022-08-23T11:49:33;31.20;48.30
12477;DHT22;6303;51.504;6.300;2022-08-23T11:52:14;31.20;48.30
12477;DHT22;6303;51.504;6.300;2022-08-23T11:57:55;31.20;48.10
12477;DHT22;6303;51.504;6.300;2022-08-23T12:00:30;31.20;48.40
12477;DHT22;6303;51.504;6.300;2022-08-23T12:03:22;31.20;48.30
12477;DHT22;6303;51.504;6.300;2022-08-23T12:06:11;31.20;48.50
12477;DHT22;6303;51.504;6.300;2022-08-23T12:08:51;31.20;48.60
12477;DHT22;6303;51.504;6.300;2022-08-23T12:11:21;31.20;48.60
12477;DHT22;6303;51.504;6.300;2022-08-23T12:13:58;31.20;48.70
12477;DHT22;6303;51.504;6.300;2022-08-23T12:16:30;31.20;48.60
12477;DHT22;6303;51.504;6.300;2022-08-23T12:19:00;31.20;48.60
12477;DHT22;6303;51.504;6.300;2022-08-23T12:21:32;31.20;48.50
12477;DHT22;6303;51.504;6.300;2022-08-23T12:24:12;31.20;48.40
12477;DHT22;6303;51.504;6.300;2022-08-23T12:26:46;31.20;48.30
12477;DHT22;6303;51.504;6.300;2022-08-23T12:29:26;31.20;48.30
12477;DHT22;6303;51.504;6.300;2022-08-23T12:31:58;31.20;48.40
12477;DHT22;6303;51.504;6.300;2022-08-23T12:34:33;31.20;48.40
12477;DHT22;6303;51.504;6.300;2022-08-23T12:37:08;31.30;48.50
12477;DHT22;6303;51.504;6.300;2022-08-23T12:39:45;31.30;48.30
12477;DHT22;6303;51.504;6.300;2022-08-23T12:42:15;31.30;48.20
12477;DHT22;6303;51.504;6.300;2022-08-23T12:44:58;31.30;48.30
12477;DHT22;6303;51.504;6.300;2022-08-23T12:47:25;31.30;48.80
12477;DHT22;6303;51.504;6.300;2022-08-23T12:49:54;31.30;48.20
12477;DHT22;6303;51.504;6.300;2022-08-23T12:52:24;31.30;48.30
12477;DHT22;6303;51.504;6.300;2022-08-23T12:54:52;31.30;48.20
12477;DHT22;6303;51.504;6.300;2022-08-23T12:57:31;29.70;47.10
12477;DHT22;6303;51.504;6.300;2022-08-23T13:00:09;31.40;48.10
12477;DHT22;6303;51.504;6.300;2022-08-23T13:02:40;31.40;48.10
12477;DHT22;6303;51.504;6.300;2022-08-23T13:05:11;31.40;48.10
12477;DHT22;6303;51.504;6.300;2022-08-23T13:07:40;31.40;48.00
12477;DHT22;6303;51.504;6.300;2022-08-23T13:10:08;31.50;48.00
12477;DHT22;6303;51.504;6.300;2022-08-23T13:12:37;31.40;48.00
12477;DHT22;6303;51.504;6.300;2022-08-23T13:15:06;31.40;48.10
12477;DHT22;6303;51.504;6.300;2022-08-23T13:17:35;31.40;48.20
12477;DHT22;6303;51.504;6.300;2022-08-23T13:20:19;31.40;48.20
12477;DHT22;6303;51.504;6.300;2022-08-23T13:23:01;31.40;48.30
12477;DHT22;6303;51.504;6.300;2022-08-23T13:25:32;31.40;48.30
12477;DHT22;6303;51.504;6.300;2022-08-23T13:28:02;31.40;48.30
12477;DHT22;6303;51.504;6.300;2022-08-23T13:30:33;31.40;48.30
12477;DHT22;6303;51.504;6.300;2022-08-23T13:33:19;31.40;48.40
12477;DHT22;6303;51.504;6.300;2022-08-23T13:35:47;31.30;48.40
12477;DHT22;6303;51.504;6.300;2022-08-23T13:38:19;31.30;48.40
12477;DHT22;6303;51.504;6.300;2022-08-23T13:40:54;31.30;49.00
12477;DHT22;6303;51.504;6.300;2022-08-23T13:43:26;31.20;48.40
12477;DHT22;6303;51.504;6.300;2022-08-23T13:45:59;31.30;48.50
12477;DHT22;6303;51.504;6.300;2022-08-23T13:48:35;31.30;48.30
12477;DHT22;6303;51.504;6.300;2022-08-23T13:51:33;31.40;47.80
12477;DHT22;6303;51.504;6.300;2022-08-23T13:54:04;31.40;48.30
12477;DHT22;6303;51.504;6.300;2022-08-23T13:56:36;31.40;48.40
12477;DHT22;6303;51.504;6.300;2022-08-23T13:59:13;31.40;48.50
12477;DHT22;6303;51.504;6.300;2022-08-23T14:01:44;31.40;48.60
12477;DHT22;6303;51.504;6.300;2022-08-23T14:04:11;31.40;48.60
12477;DHT22;6303;51.504;6.300;2022-08-23T14:06:38;31.40;48.50
12477;DHT22;6303;51.504;6.300;2022-08-23T14:09:06;31.40;48.40
12477;DHT22;6303;51.504;6.300;2022-08-23T14:11:34;31.40;48.40
12477;DHT22;6303;51.504;6.300;2022-08-23T14:14:01;31.40;48.30
12477;DHT22;6303;51.504;6.300;2022-08-23T14:16:32;31.50;48.10
12477;DHT22;6303;51.504;6.300;2022-08-23T14:19:02;31.50;48.20
12477;DHT22;6303;51.504;6.300;2022-08-23T14:21:29;31.50;48.20
12477;DHT22;6303;51.504;6.300;2022-08-23T14:23:56;31.50;48.10
12477;DHT22;6303;51.504;6.300;2022-08-23T14:26:23;31.50;48.10
12477;DHT22;6303;51.504;6.300;2022-08-23T14:28:51;31.50;48.10
12477;DHT22;6303;51.504;6.300;2022-08-23T14:31:19;31.50;48.10
12477;DHT22;6303;51.504;6.300;2022-08-23T14:33:46;31.50;48.20
12477;DHT22;6303;51.504;6.300;2022-08-23T14:36:15;31.50;48.30
12477;DHT22;6303;51.504;6.300;2022-08-23T14:38:43;31.50;48.30
12477;DHT22;6303;51.504;6.300;2022-08-23T14:41:13;31.50;47.90
12477;DHT22;6303;51.504;6.300;2022-08-23T14:43:42;31.50;48.50
12477;DHT22;6303;51.504;6.300;2022-08-23T14:46:09;31.50;48.40
12477;DHT22;6303;51.504;6.300;2022-08-23T14:48:36;31.60;48.50
12477;DHT22;6303;51.504;6.300;2022-08-23T14:51:03;31.60;48.10
12477;DHT22;6303;51.504;6.300;2022-08-23T14:53:33;31.50;48.50
12477;DHT22;6303;51.504;6.300;2022-08-23T14:56:02;31.50;48.40
12477;DHT22;6303;51.504;6.300;2022-08-23T14:58:29;31.60;48.20
12477;DHT22;6303;51.504;6.300;2022-08-23T15:00:57;31.70;47.50
12477;DHT22;6303;51.504;6.300;2022-08-23T15:03:25;31.60;48.60
12477;DHT22;6303;51.504;6.300;2022-08-23T15:05:53;31.60;48.10
12477;DHT22;6303;51.504;6.300;2022-08-23T15:08:20;31.60;48.10
12477;DHT22;6303;51.504;6.300;2022-08-23T15:10:50;31.60;48.30
12477;DHT22;6303;51.504;6.300;2022-08-23T15:13:19;31.50;48.30
12477;DHT22;6303;51.504;6.300;2022-08-23T15:15:47;31.50;48.30
12477;DHT22;6303;51.504;6.300;2022-08-23T15:18:15;31.50;48.40
12477;DHT22;6303;51.504;6.300;2022-08-23T15:20:43;31.50;48.40
12477;DHT22;6303;51.504;6.300;2022-08-23T15:23:11;31.50;48.40
12477;DHT22;6303;51.504;6.300;2022-08-23T15:25:41;31.50;48.10
12477;DHT22;6303;51.504;6.300;2022-08-23T15:28:13;31.60;49.20
12477;DHT22;6303;51.504;6.300;2022-08-23T15:30:42;31.60;49.50
12477;DHT22;6303;51.504;6.300;2022-08-23T15:33:09;31.60;48.70
12477;DHT22;6303;51.504;6.300;2022-08-23T15:35:39;31.70;48.60
12477;DHT22;6303;51.504;6.300;2022-08-23T15:38:07;31.70;48.50
12477;DHT22;6303;51.504;6.300;2022-08-23T15:40:36;31.70;48.50
12477;DHT22;6303;51.504;6.300;2022-08-23T15:43:03;31.70;48.50
12477;DHT22;6303;51.504;6.300;2022-08-23T15:45:32;31.70;48.30
12477;DHT22;6303;51.504;6.300;2022-08-23T15:48:01;31.70;48.10
12477;DHT22;6303;51.504;6.300;2022-08-23T15:50:32;31.70;48.30
12477;DHT22;6303;51.504;6.300;2022-08-23T15:53:03;31.70;48.20
12477;DHT22;6303;51.504;6.300;2022-08-23T15:55:31;31.70;48.10
12477;DHT22;6303;51.504;6.300;2022-08-23T15:57:59;31.70;48.10
12477;DHT22;6303;51.504;6.300;2022-08-23T16:00:26;31.70;48.20
12477;DHT22;6303;51.504;6.300;2022-08-23T16:02:55;31.70;48.20
12477;DHT22;6303;51.504;6.300;2022-08-23T16:05:22;31.70;48.10
12477;DHT22;6303;51.504;6.300;2022-08-23T16:07:52;31.70;48.20
12477;DHT22;6303;51.504;6.300;2022-08-23T16:10:21;31.70;48.00
12477;DHT22;6303;51.504;6.300;2022-08-23T16:12:48;31.70;47.90
12477;DHT22;6303;51.504;6.300;2022-08-23T16:15:16;31.80;48.10
12477;DHT22;6303;51.504;6.300;2022-08-23T16:17:43;31.70;48.10
12477;DHT22;6303;51.504;6.300;2022-08-23T16:20:11;31.70;48.10
12477;DHT22;6303;51.504;6.300;2022-08-23T16:22:39;31.70;48.20
12477;DHT22;6303;51.504;6.300;2022-08-23T16:25:06;31.70;48.00
12477;DHT22;6303;51.504;6.300;2022-08-23T16:27:33;31.70;48.20